Time;durP1;ratioP1;P1;durP2;ratioP2;P2;SDS_P1;SDS_P2;PMS_P1;PMS_P2;Temp;Humidity;BMP_temperature;BMP_pressure;BME280_temperature;BME280_humidity;BME280_pressure;Samples;Min_cycle;Max_cycle;Signal;HPM_P1;HPM_P2
2021/03/03 00:00:37;;;;;;;;;;;;;;;2.94;63.73;102909.56;4172097;28;20072;-84
2021/03/03 00:02:40;;;;;;;43.83;39.37;;;;;;;2.83;63.62;102898.75;4185637;28;20016;-86
2021/03/03 00:04:41;;;;;;;37.58;33.67;;;;;;;2.85;63.74;102898.63;4189352;28;20048;-86
2021/03/03 00:06:41;;;;;;;;;;;;;;;2.81;63.94;102903.38;4187873;28;20574;-84
2021/03/03 00:08:41;;;;;;;35.80;31.90;;;;;;;2.82;63.94;102914.09;4190910;28;19927;-86
2021/03/03 00:10:42;;;;;;;;;;;;;;;2.80;64.17;102907.94;4193927;28;20070;-83
2021/03/03 00:12:42;;;;;;;34.87;31.13;;;;;;;2.82;64.12;102903.25;4186668;28;19928;-86
2021/03/03 00:14:42;;;;;;;;;;;;;;;2.74;64.13;102905.72;4193055;28;20508;-85
2021/03/03 00:16:43;;;;;;;36.97;31.03;;;;;;;2.72;64.00;102899.59;4191215;28;20644;-86
2021/03/03 00:18:43;;;;;;;;;;;;;;;2.77;63.85;102907.34;4190296;28;20044;-84
2021/03/03 00:20:44;;;;;;;43.67;39.07;;;;;;;2.76;64.49;102913.72;4187330;28;19924;-85
2021/03/03 00:22:44;;;;;;;;;;;;;;;2.76;64.22;102908.31;4186703;28;20083;-84
2021/03/03 00:25:49;;;;;;;40.70;35.63;;;;;;;2.77;64.08;102916.28;4191608;28;20553;-85
2021/03/03 00:27:49;;;;;;;37.88;33.90;;;;;;;2.78;63.93;102918.03;4186137;28;20040;-85
2021/03/03 00:29:49;;;;;;;;;;;;;;;2.75;63.95;102918.28;4189327;28;20041;-83
2021/03/03 00:31:50;;;;;;;43.07;38.87;;;;;;;2.78;63.91;102918.03;4189848;28;19924;-86
2021/03/03 00:33:50;;;;;;;;;;;;;;;2.75;63.89;102912.88;4186012;28;20619;-84
2021/03/03 00:35:50;;;;;;;32.83;29.27;;;;;;;2.73;63.82;102914.81;4188549;28;19930;-86
2021/03/03 00:37:51;;;;;;;;;;;;;;;2.71;63.91;102922.19;4192433;28;20517;-84
2021/03/03 00:39:52;;;;;;;26.80;23.77;;;;;;;2.67;63.94;102923.41;4184526;28;19970;-86
2021/03/03 00:41:52;;;;;;;;;;;;;;;2.64;64.42;102915.53;4190398;28;20475;-84
2021/03/03 00:43:53;;;;;;;33.80;29.03;;;;;;;2.69;64.07;102916.03;4187429;28;20015;-86
2021/03/03 00:45:53;;;;;;;;;;;;;;;2.67;64.19;102915.28;4189910;28;20052;-84
2021/03/03 00:47:53;;;;;;;33.20;29.57;;;;;;;2.62;64.25;102912.09;4178150;28;20106;-85
2021/03/03 00:49:54;;;;;;;;;;;;;;;2.61;64.26;102919.34;4186858;28;20033;-84
2021/03/03 00:51:54;;;;;;;41.57;37.20;;;;;;;2.52;64.13;102903.84;4188272;28;19924;-86
2021/03/03 00:53:54;;;;;;;;;;;;;;;2.57;64.13;102915.16;4190582;28;20575;-83
2021/03/03 00:55:55;;;;;;;38.90;34.87;;;;;;;2.53;64.08;102913.66;4185145;28;19930;-86
2021/03/03 00:57:55;;;;;;;;;;;;;;;2.51;64.34;102914.75;4190240;28;20041;-83
2021/03/03 00:59:55;;;;;;;48.17;43.67;;;;;;;2.54;64.27;102918.09;4192618;28;19924;-86
2021/03/03 01:01:56;;;;;;;;;;;;;;;2.49;64.50;102905.91;4189885;28;20040;-84
2021/03/03 01:03:56;;;;;;;30.10;27.13;;;;;;;2.47;64.26;102910.56;4191943;28;19923;-86
2021/03/03 01:05:56;;;;;;;;;;;;;;;2.43;64.39;102918.06;4190134;28;20032;-84
2021/03/03 01:07:57;;;;;;;37.80;33.80;;;;;;;2.49;64.57;102914.88;4191808;28;20401;-86
2021/03/03 01:09:57;;;;;;;;;;;;;;;2.45;64.54;102914.25;4195995;28;20036;-84
2021/03/03 01:11:57;;;;;;;38.10;34.20;;;;;;;2.45;64.49;102922.34;4192661;28;19928;-86
2021/03/03 01:13:58;;;;;;;;;;;;;;;2.42;64.17;102919.03;4193626;28;20151;-84
2021/03/03 01:15:58;;;;;;;39.80;36.13;;;;;;;2.42;64.43;102914.47;4189350;28;19916;-86
2021/03/03 01:18:01;;;;;;;;;;;;;;;2.37;64.53;102919.38;4194053;28;20036;-83
2021/03/03 01:20:03;;;;;;;45.20;41.13;;;;;;;2.34;64.34;102911.50;4193414;28;19928;-86
2021/03/03 01:22:04;;;;;;;42.58;38.63;;;;;;;2.21;64.22;102883.69;4189048;28;20123;-86
2021/03/03 01:24:04;;;;;;;;;;;;;;;2.32;64.35;102913.47;4177459;28;20438;-84
2021/03/03 01:26:05;;;;;;;43.70;39.53;;;;;;;2.28;64.34;102909.28;4195684;28;19999;-86
2021/03/03 01:28:05;;;;;;;;;;;;;;;2.25;64.17;102904.09;4193658;28;20040;-84
2021/03/03 01:30:06;;;;;;;36.90;33.03;;;;;;;2.29;64.34;102897.50;4194485;28;20263;-86
2021/03/03 01:32:06;;;;;;;;;;;;;;;2.24;64.44;102902.38;4192547;28;20074;-83
2021/03/03 01:34:07;;;;;;;51.03;46.47;;;;;;;2.24;64.44;102897.84;4193339;28;19970;-86
2021/03/03 01:36:07;;;;;;;;;;;;;;;2.22;64.67;102899.78;4194774;28;20526;-84
2021/03/03 01:38:07;;;;;;;40.10;36.10;;;;;;;2.19;64.45;102894.59;4189500;28;19936;-86
2021/03/03 01:40:08;;;;;;;;;;;;;;;2.18;64.41;102892.03;4191910;28;20033;-83
2021/03/03 01:42:08;;;;;;;38.17;33.83;;;;;;;2.16;64.38;102889.44;4196667;28;19967;-86
2021/03/03 01:44:08;;;;;;;;;;;;;;;2.17;64.40;102885.78;4191587;28;20055;-84
2021/03/03 01:46:09;;;;;;;37.53;33.10;;;;;;;2.10;64.46;102879.09;4194575;28;19924;-86
2021/03/03 01:48:09;;;;;;;;;;;;;;;2.12;64.32;102882.56;4191911;28;20408;-83
2021/03/03 01:50:10;;;;;;;46.00;41.37;;;;;;;2.12;64.32;102882.56;4191405;28;20378;-86
2021/03/03 01:52:11;;;;;;;;;;;;;;;2.13;64.65;102886.13;4195605;28;20033;-84
2021/03/03 01:54:11;;;;;;;54.73;49.53;;;;;;;2.04;64.90;102883.16;4191454;28;19964;-86
2021/03/03 01:56:11;;;;;;;;;;;;;;;2.14;64.50;102890.56;4195442;28;20047;-84
2021/03/03 01:58:12;;;;;;;43.03;34.27;;;;;;;2.08;64.39;102876.50;4194478;28;19931;-85
2021/03/03 02:00:12;;;;;;;;;;;;;;;2.13;64.38;102886.13;4191734;28;20039;-83
2021/03/03 02:02:13;;;;;;;43.23;38.53;;;;;;;2.16;64.30;102883.19;4193692;28;19934;-85
2021/03/03 02:04:13;;;;;;;;;;;;;;;2.08;64.40;102876.50;4192648;28;20406;-83
2021/03/03 02:06:19;;;;;;;41.07;35.53;;;;;;;2.08;64.48;102875.66;4191867;28;19928;-86
2021/03/03 02:08:26;;;;;;;42.08;37.45;;;;;;;2.08;64.61;102881.06;4192248;28;20105;-85
2021/03/03 02:10:43;;;;;;;35.70;29.38;;;;;;;2.04;64.49;102869.66;4190094;28;20063;-86
2021/03/03 02:12:52;;;;;;;44.42;39.97;;;;;;;2.02;64.42;102873.44;4190627;28;20040;-86
2021/03/03 02:14:57;;;;;;;45.50;40.85;;;;;;;2.01;64.16;102869.88;4189233;28;20023;-85
2021/03/03 02:16:59;;;;;;;50.28;45.03;;;;;;;1.97;64.61;102872.94;4193178;28;20760;-86
2021/03/03 02:19:00;;;;;;;46.38;41.50;;;;;;;1.99;64.87;102866.41;4192493;28;20075;-86
2021/03/03 02:21:19;;;;;;;44.83;39.97;;;;;;;1.97;64.77;102867.53;4191388;28;20120;-86
2021/03/03 02:23:33;;;;;;;41.28;37.05;;;;;;;1.94;64.39;102852.38;4193693;28;20051;-83
2021/03/03 02:25:36;;;;;;;50.88;45.85;;;;;;;1.99;64.54;102862.84;4189137;28;20040;-83
2021/03/03 02:27:37;;;;;;;47.47;42.75;;;;;;;2.02;64.44;102868.88;4191395;28;20017;-85
2021/03/03 02:29:37;;;;;;;;;;;;;;;2.00;64.54;102860.03;4193272;28;20033;-84
2021/03/03 02:31:44;;;;;;;47.93;43.20;;;;;;;1.99;64.51;102850.19;4189949;28;19924;-85
2021/03/03 02:33:45;;;;;;;48.05;43.17;;;;;;;1.98;64.31;102853.91;4190637;28;20083;-84
2021/03/03 02:35:46;;;;;;;48.97;43.97;;;;;;;1.64;64.51;102802.41;4186723;28;20171;-87
2021/03/03 02:37:47;;;;;;;;;;;;;;;1.97;64.51;102852.16;4190534;28;20036;-83
2021/03/03 02:39:48;;;;;;;54.17;48.88;;;;;;;1.96;64.45;102853.09;4192018;28;19927;-86
2021/03/03 02:41:49;;;;;;;;;;;;;;;1.92;64.36;102848.94;4186470;28;20129;-84
2021/03/03 02:43:50;;;;;;;47.97;42.97;;;;;;;1.90;64.41;102840.94;4189886;28;19925;-86
2021/03/03 02:45:51;;;;;;;50.95;45.80;;;;;;;1.91;64.30;102839.09;4187872;28;20149;-86
2021/03/03 02:47:52;;;;;;;;;;;;;;;1.88;64.16;102842.03;4192987;28;20025;-84
2021/03/03 02:49:53;;;;;;;44.17;39.33;;;;;;;1.88;64.32;102832.09;4190355;28;19929;-83
2021/03/03 02:51:53;;;;;;;;;;;;;;;1.87;64.53;102841.19;4183610;28;20795;-84
2021/03/03 02:53:53;;;;;;;54.73;49.40;;;;;;;1.84;64.58;102832.44;4187183;28;19923;-84
2021/03/03 02:55:54;;;;;;;;;;;;;;;1.85;64.50;102836.88;4193871;28;20136;-84
2021/03/03 02:57:55;;;;;;;44.37;39.83;;;;;;;1.81;64.58;102833.53;4190757;28;19924;-84
2021/03/03 02:59:57;;;;;;;57.60;52.25;;;;;;;1.62;64.09;102800.81;4189818;28;20055;-84
2021/03/03 03:01:58;;;;;;;50.40;45.33;;;;;;;1.79;64.36;102831.94;4185342;28;20505;-84
2021/03/03 03:04:01;;;;;;;49.80;44.67;;;;;;;1.72;64.28;102821.59;4191362;28;20107;-84
2021/03/03 03:06:17;;;;;;;58.97;53.55;;;;;;;1.80;64.20;102831.81;4192454;28;20036;-84
2021/03/03 03:08:21;;;;;;;48.42;41.50;;;;;;;1.83;64.49;102831.56;4188855;28;20075;-84
2021/03/03 03:10:23;;;;;;;58.25;52.75;;;;;;;1.81;64.23;102821.88;4187872;28;20451;-84
2021/03/03 03:12:24;;;;;;;56.17;50.83;;;;;;;1.81;64.26;102828.16;4192629;28;20028;-84
2021/03/03 03:14:27;;;;;;;54.30;49.00;;;;;;;1.79;64.41;102827.38;4187881;28;20056;-84
2021/03/03 03:16:28;;;;;;;58.53;52.55;;;;;;;1.89;64.18;102827.56;4189579;28;20079;-84
2021/03/03 03:18:30;;;;;;;;;;;;;;;1.87;64.46;102832.19;4191916;28;20107;-84
2021/03/03 03:20:34;;;;;;;45.72;39.33;;;;;;;1.92;64.34;102832.72;4191886;28;20017;-84
2021/03/03 03:22:34;;;;;;;52.08;46.35;;;;;;;1.89;64.48;102836.50;4194236;28;20131;-84
2021/03/03 03:24:36;;;;;;;;;;;;;;;1.89;64.31;102832.97;4192106;28;20540;-84
2021/03/03 03:26:38;;;;;;;48.78;42.95;;;;;;;1.87;64.54;102832.19;4189374;28;19966;-84
2021/03/03 03:28:40;;;;;;;47.13;42.33;;;;;;;1.91;64.49;102833.69;4165451;28;20033;-84
2021/03/03 03:30:41;;;;;;;50.95;45.65;;;;;;;1.89;64.54;102836.50;4190913;28;20254;-84
2021/03/03 03:32:42;;;;;;;61.83;55.88;;;;;;;1.96;64.27;102838.75;4188669;28;20154;-84
2021/03/03 03:34:42;;;;;;;;;;;;;;;1.92;64.35;102841.69;4190314;28;20517;-84
2021/03/03 03:36:43;;;;;;;52.20;46.93;;;;;;;1.98;64.32;102842.22;4190666;28;19924;-84
2021/03/03 03:38:44;;;;;;;51.17;46.05;;;;;;;1.82;64.62;102829.00;4191264;28;20604;-84
2021/03/03 03:40:44;;;;;;;;;;;;;;;1.91;64.76;102844.50;4187624;28;20029;-84
2021/03/03 03:42:45;;;;;;;55.43;49.83;;;;;;;1.94;64.68;102849.66;4192736;28;19921;-84
2021/03/03 03:44:46;;;;;;;;;;;;;;;1.95;64.99;102842.41;4192607;28;20633;-84
2021/03/03 03:46:47;;;;;;;69.55;63.03;;;;;;;1.92;64.84;102832.72;4190517;28;20633;-84
2021/03/03 03:48:48;;;;;;;77.78;70.95;;;;;;;1.94;64.67;102843.41;4192010;28;20086;-84
2021/03/03 03:50:49;;;;;;;;;;;;;;;1.91;64.60;102842.66;4187698;28;20040;-85
2021/03/03 03:52:53;;;;;;;59.97;54.03;;;;;;;1.92;64.78;102846.22;4190806;28;20634;-85
2021/03/03 03:54:54;;;;;;;57.60;52.10;;;;;;;1.86;64.84;102830.50;4188123;28;20055;-85
2021/03/03 03:56:54;;;;;;;;;;;;;;;1.95;64.89;102848.69;4187045;28;20071;-84
2021/03/03 03:58:55;;;;;;;73.00;65.77;;;;;;;1.96;65.32;102844.16;4190818;28;19920;-85
2021/03/03 04:00:55;;;;;;;;;;;;;;;2.02;65.75;102854.53;4194188;28;20090;-85
2021/03/03 04:02:56;;;;;;;88.40;80.17;;;;;;;2.02;65.45;102849.13;4188660;28;19925;-85
2021/03/03 04:04:57;;;;;;;83.68;75.47;;;;;;;2.13;65.24;102854.56;4176079;28;20100;-85
2021/03/03 04:06:57;;;;;;;;;;;;;;;2.16;66.09;102853.47;4190898;28;20039;-85
2021/03/03 04:08:57;;;;;;;71.10;63.00;;;;;;;2.20;66.41;102852.25;4187114;28;20658;-85
2021/03/03 04:10:58;;;;;;;;;;;;;;;2.24;66.32;102856.44;4192583;28;20028;-85
2021/03/03 04:12:58;;;;;;;81.53;73.57;;;;;;;2.30;66.05;102855.97;4191791;28;19920;-84
2021/03/03 04:14:59;;;;;;;;;;;;;;;2.34;66.82;102856.59;4188289;28;20029;-85
2021/03/03 04:16:59;;;;;;;96.73;87.43;;;;;;;2.39;66.87;102846.28;4190164;28;19977;-84
2021/03/03 04:18:59;;;;;;;;;;;;;;;2.42;66.84;102849.59;4188687;28;20031;-84
2021/03/03 04:21:00;;;;;;;96.83;87.57;;;;;;;2.47;67.22;102849.25;4188886;28;19924;-85
2021/03/03 04:23:00;;;;;;;;;;;;;;;2.70;67.83;102855.56;4173491;28;20029;-86
2021/03/03 04:25:01;;;;;;;102.40;82.60;;;;;;;2.81;68.71;102852.88;4190078;28;19944;-84
2021/03/03 04:27:02;;;;;;;188.30;69.47;;;;;;;2.92;68.97;102843.03;4190862;28;20473;-85
2021/03/03 04:29:02;;;;;;;;;;;;;;;3.08;69.84;102862.47;4186289;28;20063;-84
2021/03/03 04:31:03;;;;;;;95.17;55.90;;;;;;;3.20;69.35;102868.75;4192335;28;19951;-84
2021/03/03 04:33:03;;;;;;;;;;;;;;;3.26;69.00;102873.66;4189312;28;20024;-83
2021/03/03 04:35:05;;;;;;;109.17;52.30;;;;;;;3.28;68.75;102860.00;4168384;28;19933;-84
2021/03/03 04:37:05;;;;;;;100.82;40.50;;;;;;;3.31;68.61;102857.06;4192758;28;20115;-82
2021/03/03 04:39:05;;;;;;;;;;;;;;;3.33;68.58;102872.16;4186532;28;20046;-84
2021/03/03 04:41:06;;;;;;;99.33;36.43;;;;;;;3.29;68.33;102865.31;4187744;28;20437;-83
2021/03/03 04:43:07;;;;;;;;;;;;;;;3.31;68.34;102866.03;4189995;28;20387;-84
2021/03/03 04:45:09;;;;;;;120.17;33.50;;;;;;;3.37;68.10;102864.69;4189845;28;20467;-84
2021/03/03 04:47:09;;;;;;;79.95;42.20;;;;;;;3.32;68.09;102856.06;4185927;28;20525;-84
2021/03/03 04:49:09;;;;;;;;;;;;;;;3.34;68.02;102863.06;4192420;28;20033;-84
2021/03/03 04:51:10;;;;;;;51.50;40.23;;;;;;;3.30;68.00;102864.28;4186255;28;19966;-84
2021/03/03 04:53:10;;;;;;;;;;;;;;;3.35;67.98;102870.22;4158340;28;20066;-84
2021/03/03 04:55:11;;;;;;;75.03;30.47;;;;;;;3.30;68.22;102876.97;4182316;28;19924;-85
2021/03/03 04:57:11;;;;;;;;;;;;;;;3.33;67.97;102869.47;4206129;28;20032;-85
2021/03/03 04:59:11;;;;;;;38.50;35.63;;;;;;;3.35;68.05;102864.81;4191682;28;19924;-84
2021/03/03 05:01:12;;;;;;;;;;;;;;;3.36;68.02;102868.34;4189171;28;20028;-84
2021/03/03 05:03:12;;;;;;;34.40;31.23;;;;;;;3.33;68.15;102858.63;4190804;28;20006;-85
2021/03/03 05:05:13;;;;;;;;;;;;;;;3.41;67.98;102862.56;4188366;28;20063;-84
2021/03/03 05:07:13;;;;;;;56.70;51.10;;;;;;;3.41;68.05;102874.25;4187800;28;20062;-85
2021/03/03 05:09:14;;;;;;;;;;;;;;;3.34;68.16;102870.34;4188188;28;20036;-84
2021/03/03 05:11:14;;;;;;;88.80;59.37;;;;;;;3.30;68.65;102864.28;4191244;28;20569;-84
2021/03/03 05:13:15;;;;;;;;;;;;;;;3.34;68.66;102865.78;4189635;28;20529;-85
2021/03/03 05:15:15;;;;;;;51.83;41.77;;;;;;;3.35;68.28;102859.38;4191246;28;19935;-83
2021/03/03 05:17:16;;;;;;;;;;;;;;;3.40;68.56;102875.25;4188559;28;20186;-84
2021/03/03 05:19:16;;;;;;;70.43;37.43;;;;;;;3.43;68.40;102877.72;4191600;28;19931;-83
2021/03/03 05:21:16;;;;;;;;;;;;;;;3.44;68.57;102882.13;4191584;28;20155;-85
2021/03/03 05:23:30;;;;;;;51.40;39.33;;;;;;;3.45;68.22;102870.31;4187938;28;19920;-84
2021/03/03 05:25:33;;;;;;;90.60;48.72;;;;;;;3.45;68.47;102878.44;4190495;28;20032;-84
2021/03/03 05:27:34;;;;;;;80.63;34.60;;;;;;;3.47;68.53;102881.03;4188636;28;20413;-84
2021/03/03 05:29:34;;;;;;;;;;;;;;;3.51;68.32;102877.09;4187885;28;20029;-84
2021/03/03 05:31:34;;;;;;;86.13;39.70;;;;;;;3.51;68.53;102872.53;4183999;28;19921;-84
2021/03/03 05:33:35;;;;;;;;;;;;;;;3.46;68.50;102869.34;4189470;28;20387;-83
2021/03/03 05:35:36;;;;;;;106.07;52.13;;;;;;;3.44;68.65;102862.31;4185420;28;19921;-82
2021/03/03 05:37:36;;;;;;;;;;;;;;;3.51;68.54;102867.09;4185399;28;20036;-84
2021/03/03 05:39:36;;;;;;;99.77;41.33;;;;;;;3.44;68.76;102865.88;4184834;28;19983;-84
2021/03/03 05:41:37;;;;;;;;;;;;;;;3.52;68.61;102866.13;4190431;28;20412;-84
2021/03/03 05:43:37;;;;;;;47.60;42.60;;;;;;;3.48;68.56;102858.38;4186807;28;20306;-84
2021/03/03 05:45:40;;;;;;;;;;;;;;;3.56;68.63;102861.31;4189879;28;20033;-84
2021/03/03 05:47:41;;;;;;;84.10;51.70;;;;;;;3.46;68.69;102846.81;4184546;28;19929;-84
2021/03/03 05:49:43;;;;;;;;;;;;;;;3.61;68.74;102859.06;4173893;28;20032;-84
2021/03/03 05:51:44;;;;;;;51.08;46.85;;;;;;;3.62;68.41;102858.09;4191542;28;19921;-84
2021/03/03 05:53:46;;;;;;;71.25;43.50;;;;;;;3.53;68.58;102846.16;4188754;28;20032;-84
2021/03/03 05:55:47;;;;;;;60.33;54.28;;;;;;;3.68;68.46;102845.91;4189231;28;20031;-83
2021/03/03 05:57:48;;;;;;;;;;;;;;;3.67;68.44;102850.44;4187502;28;20039;-84
2021/03/03 05:59:49;;;;;;;72.72;43.17;;;;;;;3.63;68.61;102845.41;4190635;28;19924;-84
2021/03/03 06:01:49;;;;;;;;;;;;;;;3.62;68.70;102846.41;4189991;28;20127;-84
2021/03/03 06:03:50;;;;;;;62.27;42.70;;;;;;;3.59;68.56;102839.41;4192039;28;20272;-83
2021/03/03 06:05:50;;;;;;;;;;;;;;;3.50;69.19;102843.72;4189733;28;20055;-84
2021/03/03 06:07:51;;;;;;;90.47;52.50;;;;;;;3.49;69.13;102847.44;4193475;28;19928;-83
2021/03/03 06:09:51;;;;;;;;;;;;;;;3.56;68.83;102844.22;4185922;28;20037;-83
2021/03/03 06:11:54;;;;;;;53.00;43.83;;;;;;;3.65;68.56;102848.88;4190529;28;20744;-83
2021/03/03 06:13:59;;;;;;;46.47;34.70;;;;;;;3.64;68.33;102853.41;4192971;28;20086;-84
2021/03/03 06:15:59;;;;;;;78.65;42.20;;;;;;;3.64;68.75;102858.81;4189400;28;20578;-83
2021/03/03 06:18:00;;;;;;;;;;;;;;;3.66;68.44;102853.28;4192479;28;20025;-83
2021/03/03 06:20:03;;;;;;;104.18;44.58;;;;;;;3.63;68.60;102858.94;4193033;28;19920;-83
2021/03/03 06:22:28;;;;;;;71.30;38.83;;;;;;;3.48;68.70;102844.84;4188359;28;20039;-83
2021/03/03 06:24:34;;;;;;;107.35;46.35;;;;;;;3.52;68.91;102844.47;4187022;28;20045;-84
2021/03/03 06:26:35;;;;;;;90.95;44.22;;;;;;;3.61;68.69;102850.09;4191176;28;20040;-84
2021/03/03 06:28:41;;;;;;;62.05;43.53;;;;;;;3.57;68.67;102843.22;4190459;28;20062;-83
2021/03/03 06:30:41;;;;;;;67.43;45.95;;;;;;;3.69;68.56;102855.72;4192741;28;20032;-84
2021/03/03 06:32:50;;;;;;;;;;;;;;;3.69;68.54;102853.03;4190362;28;20110;-85
2021/03/03 06:34:51;;;;;;;108.03;43.92;;;;;;;3.70;68.54;102863.72;4192893;28;19924;-84
2021/03/03 06:36:54;;;;;;;;;;;;;;;3.75;68.58;102860.63;4191095;28;20070;-84
2021/03/03 06:38:55;;;;;;;94.22;53.50;;;;;;;3.70;68.62;102861.03;4190663;28;19965;-84
2021/03/03 06:40:56;;;;;;;;;;;;;;;3.72;68.31;102869.03;4187736;28;20037;-84
2021/03/03 06:42:57;;;;;;;125.43;52.55;;;;;;;3.68;68.61;102864.88;4189501;28;19928;-85
2021/03/03 06:44:57;;;;;;;;;;;;;;;3.68;68.59;102873.84;4189304;28;20052;-85
2021/03/03 06:47:07;;;;;;;94.47;66.60;;;;;;;3.69;68.62;102882.81;4192721;28;20267;-84
2021/03/03 06:49:21;;;;;;;126.80;54.53;;;;;;;3.62;68.75;102877.06;4186865;28;20036;-84
2021/03/03 06:51:28;;;;;;;79.93;52.70;;;;;;;3.76;68.51;102881.31;4178631;28;20023;-86
2021/03/03 06:53:32;;;;;;;69.97;49.63;;;;;;;3.70;68.63;102881.84;4191417;28;20060;-84
2021/03/03 06:55:49;;;;;;;84.90;53.35;;;;;;;3.77;68.69;102888.47;4190527;28;20029;-86
2021/03/03 06:57:49;;;;;;;75.28;59.35;;;;;;;3.75;68.81;102884.16;4189343;28;20051;-86
2021/03/03 06:59:51;;;;;;;;;;;;;;;3.85;68.73;102894.09;4190824;28;20506;-84
2021/03/03 07:01:52;;;;;;;75.88;47.30;;;;;;;3.76;68.86;102903.00;4192912;28;19932;-85
2021/03/03 07:03:53;;;;;;;101.95;61.63;;;;;;;3.85;68.66;102907.66;4187243;28;20028;-86
2021/03/03 07:05:54;;;;;;;;;;;;;;;3.88;68.90;102912.81;4189297;28;20029;-83
2021/03/03 07:08:01;;;;;;;82.03;52.77;;;;;;;3.94;68.63;102910.56;4194206;28;19929;-84
2021/03/03 07:10:03;;;;;;;86.38;58.08;;;;;;;4.00;68.46;102910.06;4190500;28;20662;-85
2021/03/03 07:12:06;;;;;;;74.45;52.80;;;;;;;3.99;68.46;102917.34;4191701;28;20347;-83
2021/03/03 07:14:15;;;;;;;61.47;55.20;;;;;;;4.03;68.49;102921.53;4193294;28;20029;-85
2021/03/03 07:16:15;;;;;;;64.70;50.90;;;;;;;4.07;68.47;102922.13;4189965;28;20033;-85
2021/03/03 07:18:32;;;;;;;;;;;;;;;3.94;68.92;102921.41;4191890;28;20063;-82
2021/03/03 07:20:43;;;;;;;87.28;61.95;;;;;;;3.95;68.64;102918.56;4189159;28;19932;-85
2021/03/03 07:22:52;;;;;;;83.93;57.53;;;;;;;4.04;68.52;102920.53;4191801;28;20040;-85
2021/03/03 07:25:01;;;;;;;69.05;52.33;;;;;;;4.10;68.49;102921.88;4186903;28;20297;-85
2021/03/03 07:27:03;;;;;;;90.32;57.35;;;;;;;4.12;68.47;102924.44;4190066;28;20025;-85
2021/03/03 07:29:04;;;;;;;66.13;52.47;;;;;;;4.16;68.44;102918.63;4178104;28;20115;-85
2021/03/03 07:31:06;;;;;;;92.45;49.42;;;;;;;4.10;68.75;102919.16;4186518;28;20039;-85
2021/03/03 07:33:07;;;;;;;109.30;53.10;;;;;;;4.20;68.64;102924.66;4190867;28;20064;-85
2021/03/03 07:35:09;;;;;;;;;;;;;;;4.23;68.45;102925.28;4192443;28;20035;-84
2021/03/03 07:37:09;;;;;;;67.55;45.45;;;;;;;4.25;68.50;102926.00;4188044;28;20321;-85
2021/03/03 07:39:10;;;;;;;60.00;48.92;;;;;;;4.30;68.47;102922.03;4190736;28;20025;-83
2021/03/03 07:41:13;;;;;;;70.55;49.35;;;;;;;4.40;68.29;102928.38;4189610;28;20044;-86
2021/03/03 07:43:20;;;;;;;63.88;53.38;;;;;;;4.40;68.30;102933.81;4188149;28;20036;-84
2021/03/03 07:45:21;;;;;;;92.18;56.30;;;;;;;4.46;68.23;102935.19;4188408;28;20056;-84
2021/03/03 07:47:24;;;;;;;57.70;47.10;;;;;;;4.52;68.20;102938.22;4188831;28;20166;-84
2021/03/03 07:49:29;;;;;;;80.80;52.40;;;;;;;4.55;68.16;102937.13;4190010;28;20039;-83
2021/03/03 07:51:29;;;;;;;76.32;56.10;;;;;;;4.55;68.12;102923.56;4183686;28;20028;-84
2021/03/03 07:53:30;;;;;;;68.90;54.47;;;;;;;4.63;68.24;102936.47;4191845;28;20044;-84
2021/03/03 07:55:33;;;;;;;;;;;;;;;4.64;68.09;102938.19;4171766;28;20060;-84
2021/03/03 07:57:35;;;;;;;85.25;57.83;;;;;;;4.41;67.87;102911.13;4185728;28;19924;-84
2021/03/03 07:59:36;;;;;;;85.47;59.72;;;;;;;4.46;67.98;102932.47;4173743;28;20052;-83
2021/03/03 08:01:37;;;;;;;74.50;55.40;;;;;;;4.67;68.00;102935.22;4182684;28;20029;-84
2021/03/03 08:03:42;;;;;;;77.35;52.25;;;;;;;4.70;67.75;102930.38;4186889;28;20139;-83
2021/03/03 08:05:43;;;;;;;126.90;57.67;;;;;;;4.62;68.12;102935.59;4189674;28;20542;-85
2021/03/03 08:07:43;;;;;;;72.22;58.60;;;;;;;4.74;67.88;102936.38;4186855;28;20039;-84
2021/03/03 08:10:02;;;;;;;;;;;;;;;4.79;67.85;102931.44;4188758;28;20051;-85
2021/03/03 08:12:03;;;;;;;69.57;48.70;;;;;;;4.82;67.85;102928.47;4189173;28;20055;-85
2021/03/03 08:14:36;;;;;;;77.80;52.25;;;;;;;4.87;67.91;102925.34;4188634;28;20704;-84
2021/03/03 08:16:53;;;;;;;69.03;50.25;;;;;;;4.93;67.79;102941.09;4187525;28;20024;-85
2021/03/03 08:18:58;;;;;;;67.35;54.85;;;;;;;4.94;67.61;102943.69;4186163;28;20164;-84
2021/03/03 08:21:08;;;;;;;79.22;58.42;;;;;;;4.87;67.69;102937.06;4184384;28;20364;-83
2021/03/03 08:23:09;;;;;;;76.28;58.47;;;;;;;4.90;67.72;102938.66;4187560;28;20513;-84
2021/03/03 08:25:09;;;;;;;;;;;;;;;4.94;67.66;102935.53;4186098;28;20036;-83
2021/03/03 08:27:28;;;;;;;68.17;54.03;;;;;;;4.95;67.53;102934.53;4188735;28;20173;-83
2021/03/03 08:29:28;;;;;;;73.57;53.97;;;;;;;5.08;67.34;102938.88;4184917;28;20029;-84
2021/03/03 08:31:30;;;;;;;72.72;53.42;;;;;;;5.10;67.16;102945.06;4189787;28;20040;-85
2021/03/03 08:33:39;;;;;;;73.28;56.45;;;;;;;5.09;67.49;102951.47;4190069;28;20029;-83
2021/03/03 08:35:39;;;;;;;78.97;54.83;;;;;;;5.13;67.38;102936.63;4186193;28;20081;-84
2021/03/03 08:37:40;;;;;;;71.95;53.78;;;;;;;5.14;67.18;102941.94;4188153;28;20032;-83
2021/03/03 08:39:40;;;;;;;;;;;;;;;5.11;67.24;102944.03;4188303;28;20413;-84
2021/03/03 08:41:40;;;;;;;84.67;54.83;;;;;;;5.09;67.17;102941.44;4187157;28;19928;-86
2021/03/03 08:43:47;;;;;;;;;;;;;;;5.09;67.20;102944.16;4186936;28;20159;-84
2021/03/03 08:45:48;;;;;;;71.53;48.13;;;;;;;5.06;67.07;102941.72;4187623;28;20367;-82
2021/03/03 08:47:51;;;;;;;71.43;49.05;;;;;;;4.98;67.56;102938.84;4190696;28;20075;-83
2021/03/03 08:49:51;;;;;;;74.43;51.28;;;;;;;5.08;67.48;102933.44;4187651;28;20032;-82
2021/03/03 08:52:06;;;;;;;74.53;55.08;;;;;;;5.16;67.27;102935.47;4187696;28;20720;-85
2021/03/03 08:54:13;;;;;;;73.13;51.00;;;;;;;5.28;67.07;102929.84;4185763;28;20533;-83
2021/03/03 08:56:37;;;;;;;68.63;54.55;;;;;;;5.35;66.73;102930.16;4190281;28;20132;-84
2021/03/03 08:58:37;;;;;;;79.97;48.85;;;;;;;5.19;67.08;102936.09;4186966;28;20024;-82
2021/03/03 09:00:47;;;;;;;80.47;58.33;;;;;;;5.28;66.84;102928.97;4187550;28;20442;-83
2021/03/03 09:02:48;;;;;;;65.85;49.90;;;;;;;5.38;66.82;102923.59;4187914;28;20041;-86
2021/03/03 09:04:52;;;;;;;;;;;;;;;5.46;66.86;102921.91;4174263;28;20044;-84
2021/03/03 09:06:56;;;;;;;72.68;49.33;;;;;;;5.44;66.69;102923.91;4175563;28;19930;-82
2021/03/03 09:09:02;;;;;;;69.80;46.03;;;;;;;5.38;66.42;102920.88;4187990;28;20745;-83
2021/03/03 09:11:03;;;;;;;76.78;53.63;;;;;;;5.46;66.26;102918.34;4185337;28;20052;-83
2021/03/03 09:13:03;;;;;;;71.47;50.63;;;;;;;5.51;66.24;102916.06;4184142;28;20017;-83
2021/03/03 09:15:04;;;;;;;;;;;;;;;5.63;66.06;102931.25;4189473;28;20056;-83
2021/03/03 09:17:08;;;;;;;81.05;56.58;;;;;;;5.51;66.06;102926.91;4189236;28;19967;-83
2021/03/03 09:19:10;;;;;;;74.90;48.78;;;;;;;5.67;65.97;102931.84;4182332;28;20034;-83
2021/03/03 09:21:12;;;;;;;80.90;59.03;;;;;;;5.64;65.88;102922.13;4168767;28;20080;-83
2021/03/03 09:23:22;;;;;;;80.45;53.17;;;;;;;5.57;66.04;102912.78;4187637;28;20097;-83
2021/03/03 09:25:24;;;;;;;75.35;47.47;;;;;;;5.73;65.99;102917.72;4186490;28;20044;-83
2021/03/03 09:27:25;;;;;;;77.07;53.17;;;;;;;5.68;65.71;102923.56;4188453;28;20024;-86
2021/03/03 09:29:33;;;;;;;83.60;62.70;;;;;;;5.71;65.70;102916.13;4190226;28;20032;-84
2021/03/03 09:31:35;;;;;;;80.03;58.08;;;;;;;5.67;65.47;102920.97;4189677;28;20072;-84
2021/03/03 09:33:36;;;;;;;71.90;49.70;;;;;;;5.64;65.23;102910.41;4190528;28;20027;-85
2021/03/03 09:35:36;;;;;;;68.45;45.60;;;;;;;5.76;65.40;102917.44;4186333;28;20029;-84
2021/03/03 09:37:42;;;;;;;71.07;48.50;;;;;;;5.75;65.25;102914.84;4189495;28;20108;-84
2021/03/03 09:39:56;;;;;;;74.45;49.20;;;;;;;5.58;65.42;102900.94;4188649;28;20035;-84
2021/03/03 09:42:05;;;;;;;77.82;48.88;;;;;;;5.61;65.25;102897.94;4188526;28;20056;-83
2021/03/03 09:44:07;;;;;;;72.43;46.55;;;;;;;5.77;65.10;102899.25;4189223;28;20048;-85